Time;durP1;ratioP1;P1;durP2;ratioP2;P2;SDS_P1;SDS_P2;PMS_P1;PMS_P2;Temp;Humidity;BMP_temperature;BMP_pressure;BME280_temperature;BME280_humidity;BME280_pressure;Samples;Min_cycle;Max_cycle;Signal;HPM_P1;HPM_P2
2022/08/11 00:00:08;;;;;;;4.13;2.00;;;21.80;99.90;;;;;;5031649;28;20634;-69
2022/08/11 00:02:47;;;;;;;4.97;2.08;;;21.70;99.90;;;;;;5037526;28;20224;-70
2022/08/11 00:05:16;;;;;;;2.72;1.98;;;21.70;99.90;;;;;;5026894;28;20204;-75
2022/08/11 00:07:53;;;;;;;3.42;2.10;;;21.70;99.90;;;;;;5031545;28;20265;-67
2022/08/11 00:10:22;;;;;;;2.65;2.13;;;21.80;99.90;;;;;;5011032;28;20227;-67
2022/08/11 00:12:56;;;;;;;4.63;2.00;;;21.90;99.90;;;;;;5030500;28;20204;-68
2022/08/11 00:15:23;;;;;;;5.68;1.70;;;21.80;99.90;;;;;;5030213;28;20200;-67
2022/08/11 00:17:55;;;;;;;4.22;2.20;;;21.80;99.90;;;;;;5027556;28;20204;-67
2022/08/11 00:20:21;;;;;;;4.07;1.95;;;21.80;99.90;;;;;;5031837;28;20700;-67
2022/08/11 00:22:47;;;;;;;3.28;2.08;;;21.80;99.90;;;;;;5007491;28;20270;-66
2022/08/11 00:25:18;;;;;;;6.93;2.28;;;21.70;99.90;;;;;;5013809;28;20164;-68
2022/08/11 00:27:45;;;;;;;2.45;2.13;;;21.50;99.90;;;;;;5027562;28;20193;-67
2022/08/11 00:30:12;;;;;;;4.70;2.13;;;21.40;99.90;;;;;;5036269;28;20288;-66
2022/08/11 00:32:40;;;;;;;2.65;2.10;;;21.40;99.90;;;;;;5031465;28;20694;-66
2022/08/11 00:35:10;;;;;;;6.55;2.13;;;21.40;99.90;;;;;;5027892;28;20201;-67
2022/08/11 00:37:37;;;;;;;2.88;1.88;;;21.30;99.90;;;;;;5031997;28;20597;-67
2022/08/11 00:40:13;;;;;;;3.08;1.90;;;21.30;99.90;;;;;;5031420;28;20208;-67
2022/08/11 00:43:07;;;;;;;3.38;2.05;;;21.20;99.90;;;;;;5031268;28;20207;-67
2022/08/11 00:45:44;;;;;;;4.07;1.80;;;21.20;99.90;;;;;;5028921;28;20735;-66
2022/08/11 00:48:35;;;;;;;2.88;2.38;;;21.20;99.90;;;;;;5025380;28;20200;-68
2022/08/11 00:51:38;;;;;;;4.88;2.05;;;21.20;99.90;;;;;;5026982;28;20274;-70
2022/08/11 00:54:25;;;;;;;6.25;2.08;;;21.10;99.90;;;;;;5029764;28;20277;-67
2022/08/11 00:57:08;;;;;;;3.17;1.92;;;21.10;99.90;;;;;;5007305;28;20622;-67
2022/08/11 00:59:55;;;;;;;3.30;2.17;;;21.00;99.90;;;;;;5029624;28;20234;-67
2022/08/11 01:02:58;;;;;;;4.63;1.90;;;20.90;99.90;;;;;;5033922;23;20248;-75
2022/08/11 01:05:42;;;;;;;4.90;2.22;;;20.90;99.90;;;;;;5027142;28;20679;-72
2022/08/11 01:08:32;;;;;;;3.95;1.80;;;20.90;99.90;;;;;;5028057;28;20208;-71
2022/08/11 01:11:10;;;;;;;3.50;1.90;;;20.90;99.90;;;;;;5028560;28;20178;-71
2022/08/11 01:13:54;;;;;;;2.90;1.90;;;20.90;99.90;;;;;;5057957;28;20551;-72
2022/08/11 01:16:51;;;;;;;2.53;1.90;;;20.80;99.90;;;;;;5029726;28;20211;-71
2022/08/11 01:19:53;;;;;;;7.07;2.13;;;20.80;99.90;;;;;;5050553;28;20204;-71
2022/08/11 01:22:30;;;;;;;3.03;1.80;;;20.80;99.90;;;;;;5047464;28;20230;-72
2022/08/11 01:25:14;;;;;;;3.42;2.22;;;20.70;99.90;;;;;;5048045;28;20568;-71
2022/08/11 01:28:14;;;;;;;4.15;2.10;;;20.70;99.90;;;;;;5057237;28;20203;-71
2022/08/11 01:31:21;;;;;;;3.45;2.15;;;20.70;99.90;;;;;;5053700;28;20214;-71
2022/08/11 01:34:05;;;;;;;4.95;2.08;;;20.60;99.90;;;;;;4964296;28;20279;-70
2022/08/11 01:36:47;;;;;;;3.00;1.83;;;20.60;99.90;;;;;;5043165;28;20216;-71
2022/08/11 01:39:49;;;;;;;3.28;2.15;;;20.50;99.90;;;;;;5045215;28;20541;-71
2022/08/11 01:46:06;;;;;;;3.25;2.50;;;20.50;99.90;;;;;;5053932;28;20250;-73
2022/08/11 01:48:48;;;;;;;5.25;1.80;;;20.50;99.90;;;;;;5049138;28;20233;-72
2022/08/11 01:51:52;;;;;;;4.88;1.98;;;20.50;99.90;;;;;;5049511;28;20207;-71
2022/08/11 01:54:30;;;;;;;3.05;2.13;;;20.40;99.90;;;;;;5033535;28;20286;-71
2022/08/11 01:57:24;;;;;;;6.15;2.22;;;20.50;99.90;;;;;;5053403;28;20204;-71
2022/08/11 01:59:54;;;;;;;3.78;2.28;;;20.50;99.90;;;;;;5046705;28;20199;-71
2022/08/11 02:02:52;;;;;;;5.53;2.38;;;20.40;99.90;;;;;;5028716;28;20224;-70
2022/08/11 02:05:59;;;;;;;4.22;2.20;;;20.30;99.90;;;;;;5050212;28;20209;-71
2022/08/11 02:08:48;;;;;;;5.45;2.28;;;20.30;99.90;;;;;;5049974;28;20861;-70
2022/08/11 02:11:30;;;;;;;4.55;2.55;;;20.30;99.90;;;;;;5054302;28;20287;-73
2022/08/11 02:14:01;;;;;;;3.10;2.13;;;20.30;99.90;;;;;;5052109;28;20203;-72
2022/08/11 02:16:48;;;;;;;5.03;2.30;;;20.20;99.90;;;;;;5047075;28;20164;-70
2022/08/11 02:25:37;;;;;;;3.85;2.08;;;20.20;99.90;;;;;;5052258;28;20231;-71
2022/08/11 02:28:20;;;;;;;4.85;2.17;;;20.20;99.90;;;;;;5049144;28;20286;-70
2022/08/11 02:34:11;;;;;;;7.20;2.65;;;20.10;99.90;;;;;;5032864;28;20259;-71
2022/08/11 02:37:14;;;;;;;5.95;2.50;;;20.20;99.90;;;;;;5019669;28;20289;-71
2022/08/11 02:39:52;;;;;;;4.40;2.10;;;20.30;99.90;;;;;;5046545;28;20605;-72
2022/08/11 02:42:39;;;;;;;4.90;2.13;;;20.30;99.90;;;;;;5051702;28;20207;-71
2022/08/11 02:45:33;;;;;;;3.00;2.15;;;20.30;99.90;;;;;;5046272;28;20208;-72
2022/08/11 02:51:43;;;;;;;2.97;2.22;;;20.10;99.90;;;;;;5049368;28;20215;-71
2022/08/11 02:54:14;;;;;;;3.78;2.40;;;20.10;99.90;;;;;;5045229;28;20204;-71
2022/08/11 02:57:10;;;;;;;2.70;2.20;;;20.10;99.90;;;;;;5033408;28;20207;-72
2022/08/11 03:00:12;;;;;;;3.13;2.20;;;20.00;99.90;;;;;;5033654;28;20212;-72
2022/08/11 03:03:08;;;;;;;4.72;2.38;;;19.90;99.90;;;;;;5046142;28;20214;-71
2022/08/11 03:05:46;;;;;;;5.20;2.47;;;19.90;99.90;;;;;;5050925;28;20667;-71
2022/08/11 03:08:30;;;;;;;4.60;2.53;;;19.90;99.90;;;;;;5031695;28;20326;-71
2022/08/11 03:17:23;;;;;;;5.15;2.50;;;19.90;99.90;;;;;;5050785;28;20644;-71
2022/08/11 03:20:14;;;;;;;5.80;2.90;;;19.80;99.90;;;;;;5024209;28;20192;-71
2022/08/11 03:22:49;;;;;;;4.90;2.80;;;19.90;99.90;;;;;;5055738;28;20234;-71
2022/08/11 03:25:30;;;;;;;6.43;2.70;;;19.90;99.90;;;;;;5048701;28;20198;-71
2022/08/11 03:28:27;;;;;;;3.60;2.60;;;19.90;99.90;;;;;;5056855;28;20312;-71
2022/08/11 03:31:05;;;;;;;8.10;2.53;;;20.00;99.90;;;;;;5053026;28;20195;-71
2022/08/11 03:34:02;;;;;;;4.68;2.42;;;20.00;99.90;;;;;;5037690;28;20238;-71
2022/08/11 03:36:52;;;;;;;7.07;3.17;;;19.90;99.90;;;;;;5058385;28;20278;-72
2022/08/11 03:39:21;;;;;;;2.97;2.30;;;19.90;99.90;;;;;;5054833;28;20200;-73
2022/08/11 03:42:08;;;;;;;3.97;3.05;;;20.00;99.90;;;;;;5051612;28;20207;-71
2022/08/11 03:44:55;;;;;;;7.30;3.22;;;19.90;99.90;;;;;;5044009;28;20627;-74
2022/08/11 03:47:44;;;;;;;10.10;3.13;;;19.80;99.90;;;;;;5048670;28;20208;-74
2022/08/11 03:50:31;;;;;;;6.28;2.70;;;19.80;99.90;;;;;;5047205;28;20300;-71
2022/08/11 03:53:02;;;;;;;7.03;2.55;;;19.90;99.90;;;;;;5047030;28;20195;-74
2022/08/11 03:56:01;;;;;;;4.30;2.65;;;20.10;99.90;;;;;;5049453;28;20981;-71
2022/08/11 03:59:16;;;;;;;8.10;2.70;;;20.30;99.90;;;;;;5033711;28;20262;-72
2022/08/11 04:02:06;;;;;;;4.90;2.88;;;20.30;99.90;;;;;;5019125;28;20253;-73
2022/08/11 04:05:08;;;;;;;3.75;3.00;;;20.30;99.90;;;;;;5045618;28;20220;-75
2022/08/11 04:08:03;;;;;;;6.03;3.05;;;20.30;99.90;;;;;;5053994;28;20188;-71
2022/08/11 04:10:34;;;;;;;7.97;3.50;;;20.20;99.90;;;;;;5045933;28;20204;-71
2022/08/11 04:13:41;;;;;;;3.55;2.90;;;20.40;99.90;;;;;;5048632;28;20211;-71
2022/08/11 04:16:39;;;;;;;6.82;3.08;;;20.50;99.90;;;;;;5046424;28;20200;-74
2022/08/11 04:19:23;;;;;;;3.63;2.95;;;20.50;99.90;;;;;;5051053;28;20204;-73
2022/08/11 04:22:06;;;;;;;5.90;2.80;;;20.50;99.90;;;;;;5047274;28;20312;-72
2022/08/11 04:24:53;;;;;;;4.20;3.05;;;20.70;99.90;;;;;;5044206;28;20199;-70
2022/08/11 04:27:37;;;;;;;4.65;2.72;;;20.60;99.90;;;;;;5033982;28;20218;-74
2022/08/11 04:30:08;;;;;;;4.65;3.03;;;20.70;99.90;;;;;;5046544;28;20672;-72
2022/08/11 04:33:28;;;;;;;7.32;3.15;;;20.70;99.90;;;;;;5041710;28;20208;-71
2022/08/11 04:36:14;;;;;;;4.43;2.95;;;20.80;99.90;;;;;;5046866;28;20279;-71
2022/08/11 04:39:09;;;;;;;6.85;3.40;;;20.90;99.90;;;;;;5042570;28;20208;-71
2022/08/11 04:45:02;;;;;;;6.25;2.97;;;23.40;99.90;;;;;;5018776;28;20209;-72
2022/08/11 05:03:09;;;;;;;4.68;3.28;;;28.50;99.10;;;;;;5046888;28;20721;-70
2022/08/11 05:06:11;;;;;;;5.25;3.67;;;29.00;98.20;;;;;;5050056;28;20234;-70
2022/08/11 05:08:58;;;;;;;5.35;4.78;;;28.20;98.00;;;;;;5037468;28;20218;-71
2022/08/11 05:11:38;;;;;;;6.15;4.03;;;28.80;97.10;;;;;;5052562;28;20200;-71
2022/08/11 05:37:37;;;;;;;8.55;4.63;;;29.90;93.70;;;;;;5056575;28;20737;-71
2022/08/11 05:57:18;;;;;;;5.05;4.25;;;30.60;92.10;;;;;;5045051;28;20234;-71
2022/08/11 05:59:45;;;;;;;10.88;6.03;;;30.60;91.70;;;;;;5034333;28;20576;-71
2022/08/11 06:02:12;;;;;;;6.80;5.47;;;30.40;91.60;;;;;;5049273;28;20226;-71
2022/08/11 06:04:38;;;;;;;11.48;4.40;;;30.10;92.00;;;;;;5049507;28;20196;-72
2022/08/11 06:07:09;;;;;;;7.40;5.03;;;29.50;92.20;;;;;;5052297;28;20207;-75
2022/08/11 06:09:36;;;;;;;11.70;5.05;;;29.60;92.30;;;;;;5048459;28;20253;-72
2022/08/11 06:12:06;;;;;;;6.63;4.57;;;29.10;92.60;;;;;;5052443;28;20223;-70
2022/08/11 06:14:33;;;;;;;8.65;4.55;;;29.30;92.90;;;;;;5055471;28;20211;-72
2022/08/11 06:17:01;;;;;;;7.53;4.75;;;30.30;91.60;;;;;;5033354;28;20183;-71
2022/08/11 06:19:33;;;;;;;5.85;4.32;;;31.10;90.60;;;;;;5051042;28;20173;-72
2022/08/11 06:22:00;;;;;;;13.65;5.38;;;30.80;90.60;;;;;;5055763;28;20212;-69
2022/08/11 06:24:28;;;;;;;6.15;4.20;;;30.70;90.50;;;;;;5057249;28;20204;-71
2022/08/11 06:26:55;;;;;;;9.07;4.43;;;31.50;90.00;;;;;;5043853;28;20203;-72
2022/08/11 06:29:22;;;;;;;9.82;5.28;;;30.60;90.50;;;;;;5059548;28;20199;-71
2022/08/11 06:31:58;;;;;;;7.63;4.30;;;31.10;90.20;;;;;;5054499;28;20200;-71
2022/08/11 06:34:30;;;;;;;7.97;4.03;;;30.60;89.30;;;;;;5054817;28;20823;-71
2022/08/11 06:37:17;;;;;;;7.28;5.30;;;30.50;90.10;;;;;;5049878;28;20211;-72
2022/08/11 06:40:32;;;;;;;12.10;5.05;;;31.30;89.10;;;;;;5050950;28;20562;-71
2022/08/11 06:43:18;;;;;;;7.10;4.40;;;32.30;87.00;;;;;;5037326;28;20215;-71
2022/08/11 06:46:04;;;;;;;7.22;4.15;;;33.50;83.90;;;;;;5042270;28;20199;-71
2022/08/11 06:48:32;;;;;;;7.15;4.03;;;33.40;83.30;;;;;;5033447;28;20242;-70
2022/08/11 06:51:21;;;;;;;7.93;4.75;;;32.80;83.10;;;;;;5046016;28;20313;-71
2022/08/11 06:53:57;;;;;;;6.28;4.40;;;32.20;83.60;;;;;;5060508;28;20207;-71
2022/08/11 07:02:14;;;;;;;4.38;3.97;;;35.70;77.50;;;;;;5053814;28;20213;-72
2022/08/11 07:05:00;;;;;;;7.10;3.90;;;33.60;78.20;;;;;;5065736;28;20194;-73
2022/08/11 07:16:33;;;;;;;7.13;4.20;;;33.60;80.10;;;;;;5007496;28;20200;-68
2022/08/11 07:30:42;;;;;;;8.45;4.75;;;33.10;78.60;;;;;;5016833;28;20606;-68
2022/08/11 07:33:11;;;;;;;6.35;4.15;;;34.00;77.90;;;;;;4989023;28;20287;-68
2022/08/11 07:35:44;;;;;;;6.93;4.18;;;35.40;76.40;;;;;;5007105;28;20252;-68
2022/08/11 07:38:43;;;;;;;5.88;4.32;;;36.60;74.20;;;;;;5016030;28;20295;-68
2022/08/11 07:41:17;;;;;;;8.52;4.60;;;38.10;72.00;;;;;;5009321;28;20223;-69
2022/08/11 07:43:47;;;;;;;5.07;3.97;;;38.40;69.60;;;;;;5011463;28;20215;-69
2022/08/11 07:54:29;;;;;;;7.93;4.60;;;36.90;69.10;;;;;;5012688;28;20712;-69
2022/08/11 07:56:55;;;;;;;7.13;4.43;;;37.40;69.40;;;;;;5014889;28;20240;-69
2022/08/11 08:18:40;;;;;;;6.72;4.32;;;36.60;69.00;;;;;;5012123;28;20252;-66
2022/08/11 08:21:14;;;;;;;6.18;3.95;;;36.60;68.00;;;;;;5018318;28;20235;-67
2022/08/11 08:23:45;;;;;;;10.13;3.97;;;35.60;68.40;;;;;;5010553;28;20217;-67
2022/08/11 08:31:48;;;;;;;4.60;3.88;;;36.60;67.50;;;;;;5007084;28;20246;-68
2022/08/11 08:34:15;;;;;;;8.80;4.03;;;36.70;67.80;;;;;;5004893;28;20213;-67
2022/08/11 08:36:46;;;;;;;6.78;4.15;;;36.10;67.40;;;;;;5012757;28;20236;-68
2022/08/11 08:39:13;;;;;;;5.40;4.03;;;35.80;68.80;;;;;;5009885;28;20211;-70
2022/08/11 08:41:39;;;;;;;9.52;3.63;;;36.10;68.40;;;;;;5008624;28;20251;-67
2022/08/11 08:44:11;;;;;;;9.07;4.05;;;35.00;68.30;;;;;;5014943;28;20586;-67
2022/08/11 08:46:42;;;;;;;6.20;4.22;;;35.80;69.40;;;;;;5017115;28;20185;-67
2022/08/11 08:49:13;;;;;;;5.50;4.32;;;36.70;67.80;;;;;;5007815;28;20303;-67
2022/08/11 08:51:42;;;;;;;5.38;4.30;;;37.00;68.40;;;;;;5010054;28;20605;-67
2022/08/11 08:54:18;;;;;;;4.38;3.30;;;36.70;66.30;;;;;;5012834;28;20592;-67
2022/08/11 08:56:45;;;;;;;3.95;3.53;;;35.50;66.50;;;;;;5013142;28;20203;-67
2022/08/11 08:59:13;;;;;;;6.35;4.43;;;34.90;67.90;;;;;;5007692;28;20226;-67
2022/08/11 09:01:50;;;;;;;10.63;4.00;;;35.70;67.40;;;;;;4987287;28;20216;-67
2022/08/11 09:04:18;;;;;;;7.68;3.92;;;34.90;66.90;;;;;;5011026;28;20677;-67
2022/08/11 09:06:45;;;;;;;4.03;3.10;;;34.90;68.30;;;;;;5010257;28;20212;-67
2022/08/11 09:09:11;;;;;;;5.60;3.30;;;35.40;68.60;;;;;;5001962;28;20346;-66
2022/08/11 09:11:51;;;;;;;6.90;4.15;;;35.00;67.50;;;;;;5000815;28;20213;-66
2022/08/11 09:14:59;;;;;;;5.07;3.92;;;35.00;68.40;;;;;;5008716;28;20276;-66
2022/08/11 09:17:12;;;;;;;6.70;3.78;;;35.00;67.80;;;;;;5004755;28;20302;-66
2022/08/11 09:19:38;;;;;;;12.38;3.53;;;34.30;67.50;;;;;;4997812;28;20235;-66
2022/08/11 09:27:34;;;;;;;6.05;3.50;;;33.60;69.30;;;;;;5010002;28;20204;-67
2022/08/11 09:30:00;;;;;;;11.55;3.63;;;33.90;69.80;;;;;;5014272;28;20204;-68
2022/08/11 09:32:28;;;;;;;5.85;3.13;;;34.10;70.70;;;;;;5007869;28;20216;-67
2022/08/11 09:34:54;;;;;;;4.57;3.70;;;34.00;69.50;;;;;;5003734;28;20173;-67
2022/08/11 09:45:38;;;;;;;6.50;5.38;;;33.50;72.40;;;;;;5017256;28;20217;-65
2022/08/11 09:48:04;;;;;;;4.13;3.58;;;33.30;71.00;;;;;;5011692;28;20264;-65
2022/08/11 09:50:33;;;;;;;3.97;3.15;;;32.60;71.60;;;;;;5008904;28;20239;-65
2022/08/11 09:52:59;;;;;;;4.82;3.30;;;32.30;72.70;;;;;;5006151;28;20200;-65
2022/08/11 09:55:25;;;;;;;6.60;3.58;;;32.00;71.70;;;;;;5013826;28;20180;-65
2022/08/11 10:00:36;;;;;;;4.50;3.70;;;31.60;71.30;;;;;;5006507;28;20224;-65
2022/08/11 10:03:06;;;;;;;8.02;2.83;;;31.20;71.90;;;;;;5002874;28;20222;-65
2022/08/11 10:08:18;;;;;;;5.25;3.10;;;31.80;70.90;;;;;;5008524;28;20212;-66
2022/08/11 10:10:45;;;;;;;5.60;3.10;;;31.20;71.80;;;;;;5014371;28;20178;-66
2022/08/11 10:13:20;;;;;;;6.53;3.20;;;31.30;73.00;;;;;;5013321;28;20212;-65
2022/08/11 10:15:47;;;;;;;5.88;3.08;;;30.80;71.50;;;;;;5009165;28;20705;-65
2022/08/11 10:21:13;;;;;;;3.75;2.60;;;31.20;71.40;;;;;;5021469;28;20767;-65
2022/08/11 10:35:13;;;;;;;5.70;2.67;;;32.40;70.70;;;;;;5003587;28;20247;-65
2022/08/11 10:37:41;;;;;;;25.45;6.55;;;32.70;68.80;;;;;;5020641;28;20177;-65
2022/08/11 10:40:08;;;;;;;5.55;2.65;;;33.00;70.10;;;;;;4997028;28;20213;-66
2022/08/11 10:48:05;;;;;;;3.92;2.85;;;31.80;69.70;;;;;;5013719;28;20211;-68
2022/08/11 10:58:51;;;;;;;4.15;2.92;;;32.40;71.00;;;;;;5014026;28;20192;-68
2022/08/11 11:01:30;;;;;;;7.03;3.40;;;32.50;71.20;;;;;;5007651;28;20182;-68
2022/08/11 11:04:03;;;;;;;4.82;3.30;;;31.60;70.80;;;;;;5005538;28;20215;-67
2022/08/11 11:06:50;;;;;;;4.68;2.50;;;31.20;72.30;;;;;;5011551;28;20619;-66
2022/08/11 11:09:38;;;;;;;4.15;2.72;;;30.90;72.90;;;;;;5008865;28;20211;-67
2022/08/11 11:18:20;;;;;;;7.05;3.15;;;31.60;71.70;;;;;;5005202;28;20700;-67
2022/08/11 11:21:05;;;;;;;5.43;2.90;;;31.30;72.00;;;;;;5007986;28;20227;-67
2022/08/11 11:23:49;;;;;;;4.72;3.17;;;31.40;72.90;;;;;;4994511;28;20300;-67
2022/08/11 11:26:19;;;;;;;5.00;3.10;;;31.30;72.20;;;;;;5006783;28;20649;-68
2022/08/11 11:29:12;;;;;;;5.03;3.05;;;31.90;72.40;;;;;;5019439;28;20180;-69
2022/08/11 11:31:51;;;;;;;3.53;2.72;;;31.80;71.20;;;;;;5007465;28;20178;-65
2022/08/11 11:34:49;;;;;;;4.90;2.65;;;31.40;71.60;;;;;;5004994;28;20201;-66
2022/08/11 11:37:16;;;;;;;4.13;2.95;;;32.00;71.50;;;;;;5017787;28;20299;-66
2022/08/11 11:39:44;;;;;;;3.10;2.80;;;31.70;70.10;;;;;;4999836;28;20291;-68
2022/08/11 11:42:10;;;;;;;3.78;2.85;;;31.00;70.80;;;;;;5005673;28;20236;-64
2022/08/11 11:44:37;;;;;;;8.18;2.83;;;30.60;71.60;;;;;;5005377;28;20222;-67
2022/08/11 11:47:05;;;;;;;5.30;3.17;;;30.40;72.10;;;;;;5016544;28;20753;-69
2022/08/11 11:49:31;;;;;;;2.97;2.67;;;30.60;73.10;;;;;;5009981;28;20170;-67
2022/08/11 11:51:58;;;;;;;4.05;2.60;;;30.60;72.60;;;;;;5007644;28;20646;-69
2022/08/11 11:54:27;;;;;;;7.68;3.55;;;30.80;72.10;;;;;;5000124;28;20686;-67
2022/08/11 11:56:54;;;;;;;4.30;2.55;;;30.80;72.50;;;;;;5000012;28;20205;-68
2022/08/11 12:02:10;;;;;;;7.40;3.30;;;31.30;72.20;;;;;;5009106;28;20227;-67
2022/08/11 12:04:40;;;;;;;6.97;2.75;;;31.20;72.20;;;;;;5016632;28;20205;-67
2022/08/11 12:09:52;;;;;;;6.45;2.72;;;31.20;70.90;;;;;;5007977;28;20650;-69
2022/08/11 12:15:04;;;;;;;8.23;3.40;;;30.30;71.60;;;;;;5010257;28;20263;-67
2022/08/11 12:17:30;;;;;;;6.35;2.90;;;30.10;72.30;;;;;;5003716;28;20667;-68
2022/08/11 12:19:56;;;;;;;5.95;3.08;;;30.10;72.50;;;;;;5013203;28;20184;-66
2022/08/11 12:28:04;;;;;;;3.80;2.90;;;30.80;72.80;;;;;;4972030;28;20248;-69
2022/08/11 12:30:30;;;;;;;2.97;2.67;;;31.20;72.50;;;;;;5013536;28;20205;-67
2022/08/11 12:32:56;;;;;;;4.55;2.70;;;30.70;70.90;;;;;;5009530;28;20220;-67
2022/08/11 12:35:21;;;;;;;6.90;3.58;;;30.50;71.30;;;;;;5000905;28;20233;-67
2022/08/11 12:37:53;;;;;;;3.80;3.35;;;30.30;72.20;;;;;;5015266;28;20752;-68
2022/08/11 12:46:24;;;;;;;7.28;3.35;;;29.80;72.40;;;;;;4918197;29;20205;-70
2022/08/11 12:51:57;;;;;;;4.50;3.88;;;29.60;71.60;;;;;;5009197;28;20318;-68
2022/08/11 12:54:50;;;;;;;3.33;2.72;;;29.50;72.20;;;;;;5013139;28;20219;-67
2022/08/11 13:05:45;;;;;;;5.20;2.97;;;29.50;71.30;;;;;;5012501;28;20259;-68
2022/08/11 13:08:13;;;;;;;3.75;2.67;;;29.70;71.40;;;;;;5004608;28;20732;-66
2022/08/11 13:13:23;;;;;;;7.30;2.88;;;29.50;71.40;;;;;;5010482;28;20651;-66
2022/08/11 13:15:49;;;;;;;3.67;3.38;;;29.50;71.50;;;;;;5009326;28;20229;-66
2022/08/11 13:18:17;;;;;;;4.53;2.70;;;29.60;71.80;;;;;;5000732;28;20779;-67
2022/08/11 13:23:12;;;;;;;5.15;2.40;;;29.50;70.80;;;;;;5005418;28;20251;-73
2022/08/11 13:25:39;;;;;;;6.10;2.55;;;29.50;71.20;;;;;;5006397;28;20227;-70
2022/08/11 13:28:05;;;;;;;3.83;2.78;;;29.60;71.20;;;;;;5006116;28;20201;-69
2022/08/11 13:33:16;;;;;;;6.05;3.00;;;29.40;72.20;;;;;;4984536;28;20213;-69
2022/08/11 13:35:46;;;;;;;5.18;3.08;;;29.40;72.30;;;;;;4983249;28;20205;-68
2022/08/11 13:38:13;;;;;;;6.38;2.72;;;29.60;72.50;;;;;;4989226;28;20342;-69
2022/08/11 13:40:39;;;;;;;4.22;2.30;;;29.60;72.20;;;;;;5002055;28;20214;-68
2022/08/11 13:43:05;;;;;;;4.90;2.70;;;29.50;71.60;;;;;;4983166;28;20241;-70
2022/08/11 13:45:34;;;;;;;4.05;2.92;;;29.60;71.90;;;;;;4984430;28;20209;-70
2022/08/11 13:48:02;;;;;;;4.32;2.30;;;29.50;71.80;;;;;;4987504;28;20198;-69
2022/08/11 13:53:21;;;;;;;6.72;4.05;;;29.70;71.80;;;;;;4959554;28;20233;-71
2022/08/11 13:55:48;;;;;;;4.88;3.47;;;29.90;71.90;;;;;;4989949;28;20166;-69
2022/08/11 13:58:15;;;;;;;3.35;2.58;;;29.70;71.60;;;;;;4984548;28;20182;-72
2022/08/11 14:00:44;;;;;;;3.70;2.67;;;29.60;71.50;;;;;;4983245;28;20210;-71
2022/08/11 14:03:12;;;;;;;8.35;2.72;;;29.60;71.50;;;;;;4986188;28;20248;-71
2022/08/11 14:05:44;;;;;;;8.15;3.20;;;29.70;71.60;;;;;;4965649;28;20218;-71
2022/08/11 14:08:14;;;;;;;7.13;3.42;;;29.70;71.30;;;;;;5006922;28;20232;-70
2022/08/11 14:10:40;;;;;;;4.28;2.40;;;29.70;71.00;;;;;;5013022;28;20177;-69
2022/08/11 14:16:03;;;;;;;5.07;2.58;;;29.70;71.10;;;;;;5007546;28;20251;-70
2022/08/11 14:18:30;;;;;;;3.90;2.88;;;29.80;71.20;;;;;;5002187;28;20288;-72
2022/08/11 14:23:49;;;;;;;5.75;2.67;;;29.70;70.70;;;;;;5010985;28;20281;-70
2022/08/11 14:26:28;;;;;;;8.30;3.65;;;29.50;70.10;;;;;;4984465;28;20213;-72
2022/08/11 14:29:12;;;;;;;3.10;2.53;;;29.60;70.60;;;;;;5012494;28;20227;-69
2022/08/11 14:31:46;;;;;;;3.67;3.30;;;29.60;70.20;;;;;;5012605;28;20232;-70
2022/08/11 14:34:13;;;;;;;4.07;2.05;;;29.60;69.60;;;;;;5004629;28;20213;-70
2022/08/11 14:36:44;;;;;;;4.70;3.30;;;29.60;69.50;;;;;;5011305;28;20216;-70
2022/08/11 14:39:15;;;;;;;6.43;3.13;;;29.50;69.50;;;;;;4995418;28;20286;-69
2022/08/11 14:47:33;;;;;;;4.70;3.35;;;29.50;68.50;;;;;;5015902;28;20659;-71
2022/08/11 14:50:01;;;;;;;3.33;2.17;;;29.50;69.00;;;;;;5011984;28;20173;-69
2022/08/11 14:52:27;;;;;;;8.43;2.38;;;29.70;68.50;;;;;;5008429;28;20247;-68
2022/08/11 14:57:40;;;;;;;5.10;2.70;;;29.60;68.00;;;;;;5014678;28;20252;-69
2022/08/11 15:00:09;;;;;;;2.42;2.22;;;29.50;67.50;;;;;;5006930;28;20232;-69
2022/08/11 15:05:24;;;;;;;6.30;1.95;;;29.60;67.70;;;;;;5014589;28;20215;-72
2022/08/11 15:07:55;;;;;;;3.83;2.42;;;29.60;68.00;;;;;;5011092;28;20650;-69
2022/08/11 15:10:21;;;;;;;4.53;2.97;;;29.60;66.90;;;;;;5010008;28;20549;-70
2022/08/11 15:12:47;;;;;;;3.22;1.90;;;29.60;66.80;;;;;;5016434;28;20206;-69
2022/08/11 15:18:03;;;;;;;6.03;2.30;;;29.60;66.60;;;;;;5006122;28;20226;-70
2022/08/11 15:26:12;;;;;;;7.05;4.00;;;29.60;66.20;;;;;;5006602;28;20729;-71
2022/08/11 15:37:25;;;;;;;4.15;2.63;;;29.50;65.50;;;;;;5018172;28;20262;-71
2022/08/11 15:45:47;;;;;;;4.05;2.10;;;29.40;65.40;;;;;;5020479;28;20240;-73
2022/08/11 15:48:36;;;;;;;5.88;3.92;;;29.40;65.40;;;;;;5016408;28;20334;-73
2022/08/11 15:51:10;;;;;;;3.95;1.77;;;29.30;65.20;;;;;;5005506;28;20305;-71
2022/08/11 15:53:50;;;;;;;4.97;3.50;;;29.30;65.50;;;;;;5026783;28;20212;-70
2022/08/11 15:56:17;;;;;;;4.97;3.25;;;29.30;64.80;;;;;;5012194;28;20724;-74
2022/08/11 16:04:19;;;;;;;4.03;1.58;;;29.30;64.40;;;;;;5016279;28;20228;-71
2022/08/11 16:07:02;;;;;;;2.30;2.10;;;29.20;65.00;;;;;;5012774;28;20621;-76
2022/08/11 16:09:47;;;;;;;5.38;1.73;;;29.20;64.50;;;;;;4986455;28;20967;-74
2022/08/11 16:12:18;;;;;;;3.33;1.75;;;29.20;64.60;;;;;;5016968;28;20708;-75
2022/08/11 16:17:41;;;;;;;3.95;1.90;;;29.20;64.60;;;;;;5006952;28;20272;-73
2022/08/11 16:20:08;;;;;;;3.15;1.60;;;29.10;64.40;;;;;;5029365;28;20204;-68
2022/08/11 16:25:06;;;;;;;2.88;1.60;;;29.00;64.60;;;;;;5010435;28;20580;-70
2022/08/11 16:27:37;;;;;;;2.65;1.65;;;29.00;64.60;;;;;;5019479;28;20217;-71
2022/08/11 16:30:07;;;;;;;3.08;1.40;;;29.00;63.70;;;;;;5017920;28;20197;-71
2022/08/11 16:32:35;;;;;;;2.75;1.58;;;29.00;63.90;;;;;;5011406;28;20213;-72
2022/08/11 16:40:39;;;;;;;1.65;1.23;;;28.90;64.50;;;;;;5013246;28;20553;-73
2022/08/11 16:48:41;;;;;;;3.35;2.13;;;28.90;64.70;;;;;;5012157;28;20212;-71
2022/08/11 16:51:10;;;;;;;3.05;2.58;;;28.90;64.80;;;;;;5009683;28;20241;-70
2022/08/11 16:53:38;;;;;;;3.00;1.63;;;28.80;64.50;;;;;;5012400;28;20724;-69
2022/08/11 16:56:06;;;;;;;4.07;2.50;;;28.80;64.90;;;;;;5014571;28;20212;-72
2022/08/11 17:01:21;;;;;;;3.90;3.38;;;28.80;63.90;;;;;;5001726;28;20293;-69
2022/08/11 17:16:05;;;;;;;4.22;3.15;;;28.50;64.30;;;;;;5008721;28;20212;-71
2022/08/11 17:17:57;;;;;;;6.85;2.35;;;28.50;63.90;;;;;;5004497;28;20280;-74
2022/08/11 17:20:24;;;;;;;2.30;1.95;;;28.50;63.80;;;;;;5014752;28;20216;-74
2022/08/11 17:25:35;;;;;;;1.77;1.58;;;28.40;64.10;;;;;;5007453;28;20177;-70
2022/08/11 17:28:02;;;;;;;2.13;1.23;;;28.40;64.10;;;;;;5007089;28;20197;-68
2022/08/11 17:35:27;;;;;;;1.33;1.17;;;28.40;64.50;;;;;;5015046;28;20286;-69
2022/08/11 17:36:01;;;;;;;1.67;1.38;;;28.40;64.60;;;;;;5009053;28;20292;-67
2022/08/11 17:38:28;;;;;;;2.72;1.60;;;28.30;64.80;;;;;;5014744;28;20204;-67
2022/08/11 17:49:19;;;;;;;1.70;1.33;;;28.10;64.60;;;;;;5011506;28;20213;-67
2022/08/11 18:00:07;;;;;;;5.68;1.90;;;27.90;65.00;;;;;;5005499;28;20215;-69
2022/08/11 18:05:29;;;;;;;7.30;1.67;;;27.90;64.60;;;;;;5010305;28;20720;-69
